createdAt,value
2023-01-19T00:00:14.412Z,23.24
2023-01-19T00:01:14.317Z,23.25
2023-01-19T00:02:14.287Z,23.25
2023-01-19T00:03:14.243Z,23.23
2023-01-19T00:04:14.200Z,23.24
2023-01-19T00:05:14.162Z,23.23
2023-01-19T00:06:14.141Z,23.23
2023-01-19T00:07:14.086Z,23.22
2023-01-19T00:08:14.027Z,23.22
2023-01-19T00:09:13.996Z,23.20
2023-01-19T00:10:14.018Z,23.22
2023-01-19T00:11:13.903Z,23.22
2023-01-19T00:12:13.873Z,23.22
2023-01-19T00:13:13.839Z,23.22
2023-01-19T00:14:13.786Z,23.21
2023-01-19T00:15:13.759Z,23.21
2023-01-19T00:16:13.735Z,23.22
2023-01-19T00:17:13.676Z,23.22
2023-01-19T00:18:13.629Z,23.21
2023-01-19T00:19:13.604Z,23.21
2023-01-19T00:20:13.541Z,23.20
2023-01-19T00:21:13.504Z,23.21
2023-01-19T00:22:13.472Z,23.20
2023-01-19T00:23:13.408Z,23.20
2023-01-19T00:24:13.381Z,23.21
2023-01-19T00:25:13.331Z,23.19
2023-01-19T00:26:13.299Z,23.20
2023-01-19T00:27:13.239Z,23.18
2023-01-19T00:28:13.202Z,23.18
2023-01-19T00:29:13.166Z,23.20
2023-01-19T00:30:13.130Z,23.20
2023-01-19T00:31:13.107Z,23.20
2023-01-19T00:32:13.043Z,23.20
2023-01-19T00:33:12.995Z,23.20
2023-01-19T00:34:12.980Z,23.19
2023-01-19T00:35:12.925Z,23.19
2023-01-19T00:36:12.887Z,23.19
2023-01-19T00:37:12.851Z,23.19
2023-01-19T00:38:12.819Z,23.20
2023-01-19T00:39:12.774Z,23.20
2023-01-19T00:40:12.726Z,23.20
2023-01-19T00:41:12.684Z,23.19
2023-01-19T00:42:12.646Z,23.20
2023-01-19T00:43:12.610Z,23.20
2023-01-19T00:44:12.564Z,23.20
2023-01-19T00:45:12.550Z,23.19
2023-01-19T00:46:12.536Z,23.19
2023-01-19T00:47:12.448Z,23.18
2023-01-19T00:48:12.407Z,23.19
2023-01-19T00:49:12.381Z,23.20
2023-01-19T00:50:12.321Z,23.20
2023-01-19T00:51:12.288Z,23.22
2023-01-19T00:52:12.279Z,23.20
2023-01-19T00:53:12.225Z,23.20
2023-01-19T00:54:12.180Z,23.21
2023-01-19T00:55:12.130Z,23.20
2023-01-19T00:56:12.093Z,23.19
2023-01-19T00:57:12.054Z,23.20
2023-01-19T00:58:12.026Z,23.19
2023-01-19T00:59:12.028Z,23.18
2023-01-19T01:00:12.022Z,23.18
2023-01-19T01:01:12.015Z,23.17
2023-01-19T01:02:12.121Z,23.17
2023-01-19T01:03:11.914Z,23.16
2023-01-19T01:04:11.820Z,23.17
2023-01-19T01:05:11.776Z,23.18
2023-01-19T01:06:11.736Z,23.18
2023-01-19T01:07:11.703Z,23.18
2023-01-19T01:08:11.669Z,23.18
2023-01-19T01:09:11.665Z,23.18
2023-01-19T01:10:11.611Z,23.19
2023-01-19T01:11:11.584Z,23.20
2023-01-19T01:12:11.542Z,23.20
2023-01-19T01:13:20.905Z,23.19
2023-01-19T01:14:12.479Z,23.19
2023-01-19T01:15:11.434Z,23.19
2023-01-19T01:16:11.450Z,23.20
2023-01-19T01:17:11.420Z,23.20
2023-01-19T01:18:11.323Z,23.19
2023-01-19T01:19:11.273Z,23.19
2023-01-19T01:20:11.244Z,23.18
2023-01-19T01:21:11.209Z,23.18
2023-01-19T01:22:11.165Z,23.19
2023-01-19T01:23:11.136Z,23.19
2023-01-19T01:24:11.109Z,23.18
2023-01-19T01:25:11.049Z,23.18
2023-01-19T01:26:11.020Z,23.17
2023-01-19T01:27:10.969Z,23.17
2023-01-19T01:28:10.940Z,23.18
2023-01-19T01:29:10.889Z,23.17
2023-01-19T01:30:10.855Z,23.18
2023-01-19T01:31:10.820Z,23.17
2023-01-19T01:32:10.782Z,23.17
2023-01-19T01:33:10.737Z,23.16
2023-01-19T01:34:10.689Z,23.17
2023-01-19T01:35:10.653Z,23.15
2023-01-19T01:36:10.624Z,23.16
2023-01-19T01:37:10.587Z,23.16
2023-01-19T01:38:10.527Z,23.16
2023-01-19T01:39:10.489Z,23.16
2023-01-19T01:40:10.443Z,23.15
2023-01-19T01:41:10.415Z,23.15
2023-01-19T01:42:10.366Z,23.16
2023-01-19T01:43:10.334Z,23.17
2023-01-19T01:44:10.297Z,23.16
2023-01-19T01:45:10.280Z,23.16
2023-01-19T01:46:10.268Z,23.16
2023-01-19T01:47:10.196Z,23.16
2023-01-19T01:48:10.168Z,23.17
2023-01-19T01:49:10.140Z,23.16
2023-01-19T01:50:10.081Z,23.16
2023-01-19T01:51:10.041Z,23.17
2023-01-19T01:52:09.998Z,23.17
2023-01-19T01:53:10.242Z,23.17
2023-01-19T01:54:09.922Z,23.17
2023-01-19T01:55:09.876Z,23.17
2023-01-19T01:56:09.841Z,23.20
2023-01-19T01:57:10.584Z,23.20
2023-01-19T01:58:09.778Z,23.19
2023-01-19T01:59:09.734Z,23.18
2023-01-19T02:00:09.699Z,23.18
2023-01-19T02:01:09.740Z,23.17
2023-01-19T02:02:09.628Z,23.18
2023-01-19T02:03:09.627Z,23.18
2023-01-19T02:04:09.551Z,23.17
2023-01-19T02:05:09.504Z,23.17
2023-01-19T02:06:09.493Z,23.18
2023-01-19T02:07:09.453Z,23.18
2023-01-19T02:08:09.409Z,23.16
2023-01-19T02:09:09.347Z,23.17
2023-01-19T02:10:09.316Z,23.17
2023-01-19T02:11:09.264Z,23.16
2023-01-19T02:12:09.219Z,23.16
2023-01-19T02:13:09.221Z,23.15
2023-01-19T02:14:09.142Z,23.14
2023-01-19T02:15:09.112Z,23.14
2023-01-19T02:16:09.071Z,23.14
2023-01-19T02:17:09.028Z,23.11
2023-01-19T02:18:08.994Z,23.12
2023-01-19T02:19:08.952Z,23.11
2023-01-19T02:20:08.902Z,23.12
2023-01-19T05:36:00.984Z,23.09
2023-01-19T05:37:00.936Z,23.11
2023-01-19T05:38:00.900Z,23.10
2023-01-19T05:39:00.856Z,23.10
2023-01-19T05:40:00.816Z,23.09
2023-01-19T05:41:00.789Z,23.09
2023-01-19T05:42:00.734Z,23.09
2023-01-19T05:43:01.319Z,23.10
2023-01-19T05:44:00.641Z,23.10
2023-01-19T05:45:00.608Z,23.09
2023-01-19T05:46:00.574Z,23.10
2023-01-19T05:47:00.552Z,23.10
2023-01-19T05:48:00.475Z,23.09
2023-01-19T05:49:00.426Z,23.09
2023-01-19T05:50:00.375Z,23.09
2023-01-19T05:51:00.350Z,23.09
2023-01-19T05:52:00.332Z,23.09
2023-01-19T05:53:00.730Z,23.09
2023-01-19T05:54:00.207Z,23.09
2023-01-19T05:55:00.164Z,23.10
2023-01-19T05:56:00.111Z,23.09
2023-01-19T05:57:00.117Z,23.09
2023-01-19T05:58:00.033Z,23.08
2023-01-19T05:58:59.984Z,23.08
2023-01-19T05:59:59.932Z,23.09
2023-01-19T06:00:59.902Z,23.08
2023-01-19T06:01:59.919Z,23.09
2023-01-19T06:03:00.256Z,23.10
2023-01-19T06:03:59.768Z,23.09
2023-01-19T06:04:59.704Z,23.09
2023-01-19T06:05:59.665Z,23.10
2023-01-19T06:06:59.607Z,23.09
2023-01-19T06:07:59.561Z,23.10
2023-01-19T06:08:59.506Z,23.10
2023-01-19T06:09:59.464Z,23.10
2023-01-19T06:10:59.417Z,23.09
2023-01-19T06:11:59.456Z,23.09
2023-01-19T06:12:59.726Z,23.09
2023-01-19T06:13:59.334Z,23.09
2023-01-19T06:14:59.310Z,23.09
2023-01-19T06:15:59.314Z,23.09
2023-01-19T06:16:59.241Z,23.09
2023-01-19T06:17:59.208Z,23.10
2023-01-19T06:18:59.179Z,23.08
2023-01-19T06:19:59.152Z,23.09
2023-01-19T06:20:59.123Z,23.08
2023-01-19T06:21:59.089Z,23.08
2023-01-19T06:22:59.445Z,23.08
2023-01-19T06:23:59.042Z,23.08
2023-01-19T06:24:59.014Z,23.08
2023-01-19T06:25:58.981Z,23.08
2023-01-19T06:26:58.948Z,23.09
2023-01-19T06:27:58.920Z,23.09
2023-01-19T09:19:39.165Z,23.79
2023-01-19T09:20:39.171Z,23.81
2023-01-19T09:21:39.137Z,23.81
2023-01-19T09:22:39.123Z,23.83
2023-01-19T09:23:39.107Z,23.84
2023-01-19T09:24:39.109Z,23.87
2023-01-19T09:25:39.089Z,23.87
2023-01-19T09:26:39.090Z,23.89
2023-01-19T09:27:39.047Z,23.85
2023-01-19T09:28:39.020Z,23.80
2023-01-19T09:29:39.012Z,23.81
2023-01-19T09:30:39.041Z,23.83
2023-01-19T09:31:39.004Z,23.83
2023-01-19T09:32:38.967Z,23.85
2023-01-19T09:33:38.962Z,23.85
2023-01-19T09:34:38.940Z,23.87
2023-01-19T09:35:38.926Z,23.88
2023-01-19T09:36:38.905Z,23.88
2023-01-19T15:28:36.664Z,22.39
2023-01-19T15:29:36.666Z,22.42
2023-01-19T15:30:36.691Z,22.40
2023-01-19T15:31:36.726Z,22.38
2023-01-19T15:32:36.666Z,22.38
2023-01-19T15:33:36.669Z,22.36
2023-01-19T15:34:36.642Z,22.34
2023-01-19T15:35:36.637Z,22.33
2023-01-19T15:36:36.633Z,22.35
2023-01-19T15:37:36.621Z,22.37
2023-01-19T15:38:36.607Z,22.39
2023-01-19T15:39:36.611Z,22.39
2023-01-19T15:40:36.611Z,22.39
2023-01-19T15:41:36.589Z,22.40
2023-01-19T15:42:36.582Z,22.39
2023-01-19T15:43:36.596Z,22.39
2023-01-19T15:44:36.571Z,22.39
2023-01-19T15:45:36.650Z,22.37
2023-01-19T15:46:36.555Z,22.35
2023-01-19T15:47:36.557Z,22.36
2023-01-19T15:48:36.540Z,22.35
2023-01-19T15:49:36.528Z,22.34
2023-01-19T15:50:36.538Z,22.33
2023-01-19T15:51:36.524Z,22.33
2023-01-19T15:52:36.522Z,22.32
2023-01-19T15:53:36.520Z,22.32
2023-01-19T15:54:36.499Z,22.30
2023-01-19T15:55:36.497Z,22.30
2023-01-19T15:56:36.498Z,22.30
2023-01-19T15:57:36.491Z,22.30
2023-01-19T15:58:36.479Z,22.30
2023-01-19T15:59:36.486Z,22.33
2023-01-19T16:00:36.469Z,22.36
2023-01-19T16:01:36.550Z,22.38
2023-01-19T16:02:36.501Z,22.36
2023-01-19T16:03:36.441Z,22.39
2023-01-19T16:04:36.472Z,22.41
2023-01-19T16:05:43.809Z,22.43
2023-01-19T16:06:37.426Z,22.39
2023-01-19T16:07:36.434Z,22.35
2023-01-19T16:08:36.409Z,22.27
2023-01-19T16:09:36.414Z,22.25
2023-01-19T16:10:36.432Z,22.22
2023-01-19T16:11:36.396Z,22.21
2023-01-19T16:12:36.387Z,22.17
2023-01-19T16:13:36.395Z,22.14
2023-01-19T16:14:36.388Z,22.10
2023-01-19T16:15:36.445Z,22.07
2023-01-19T16:16:36.451Z,22.06
2023-01-19T16:17:36.362Z,22.05
2023-01-19T16:18:36.362Z,22.05
2023-01-19T16:19:36.349Z,22.03
2023-01-19T16:20:36.340Z,22.01
2023-01-19T16:21:36.339Z,22.00
2023-01-19T16:22:36.323Z,21.98
2023-01-19T16:23:36.317Z,21.97
2023-01-19T16:24:36.301Z,21.96
2023-01-19T16:25:36.313Z,21.94
2023-01-19T16:26:36.268Z,21.92
2023-01-19T16:27:36.287Z,21.91
2023-01-19T16:28:36.281Z,21.94
2023-01-19T16:29:36.257Z,21.94
2023-01-19T16:30:36.280Z,21.95
2023-01-19T16:31:36.293Z,21.93
2023-01-19T16:32:36.237Z,21.92
2023-01-19T16:33:36.227Z,21.90
2023-01-19T16:34:36.214Z,21.91
2023-01-19T16:35:36.223Z,21.89
2023-01-19T16:36:36.246Z,21.88
2023-01-19T16:37:36.224Z,21.86
2023-01-19T16:38:36.229Z,21.85
2023-01-19T16:39:36.211Z,21.85
2023-01-19T16:40:36.202Z,21.85
2023-01-19T16:41:36.215Z,21.83
2023-01-19T16:42:36.212Z,21.82
2023-01-19T16:43:36.206Z,21.82
2023-01-19T16:44:36.199Z,21.82
2023-01-19T16:45:36.253Z,21.81
2023-01-19T16:46:36.203Z,21.79
2023-01-19T16:47:36.213Z,21.76
2023-01-19T16:48:36.185Z,21.75
2023-01-19T16:49:36.185Z,21.75
2023-01-19T16:50:36.176Z,21.74
2023-01-19T16:51:36.192Z,21.73
2023-01-19T16:52:36.187Z,21.72
2023-01-19T16:53:36.156Z,21.71
2023-01-19T16:54:37.948Z,21.71
2023-01-19T16:55:36.131Z,21.70
2023-01-19T16:56:36.129Z,21.68
2023-01-19T16:57:36.116Z,21.70
2023-01-19T16:58:36.102Z,21.72
2023-01-19T16:59:36.097Z,21.72
2023-01-19T17:00:36.090Z,21.73
2023-01-19T17:01:36.181Z,21.71
2023-01-19T17:02:36.100Z,21.70
2023-01-19T17:03:36.058Z,21.68
2023-01-19T17:04:36.042Z,21.67
2023-01-19T17:05:36.039Z,21.66
2023-01-19T17:06:36.034Z,21.64
2023-01-19T17:07:36.029Z,21.64
2023-01-19T17:08:36.011Z,21.65
2023-01-19T17:09:36.001Z,21.64
2023-01-19T17:10:35.999Z,21.62
2023-01-19T17:11:35.988Z,21.63
2023-01-19T17:12:36.001Z,21.61
2023-01-19T17:13:35.968Z,21.61
2023-01-19T17:14:35.977Z,21.61
2023-01-19T17:15:35.953Z,21.60
2023-01-19T17:16:36.002Z,21.59
2023-01-19T17:17:35.945Z,21.58
2023-01-19T17:18:35.936Z,21.57
2023-01-19T17:19:35.933Z,21.57
2023-01-19T17:20:35.939Z,21.58
2023-01-19T17:21:35.929Z,21.58
2023-01-19T17:22:35.907Z,21.58
2023-01-19T17:23:35.886Z,21.56
2023-01-19T17:24:35.884Z,21.57
2023-01-19T17:25:35.885Z,21.54
2023-01-19T17:26:35.877Z,21.54
2023-01-19T17:27:35.867Z,21.53
2023-01-19T17:28:35.870Z,21.54
2023-01-19T17:29:35.868Z,21.57
2023-01-19T17:30:35.921Z,21.57
2023-01-19T17:31:35.914Z,21.56
2023-01-19T17:32:35.844Z,21.56
2023-01-19T17:33:35.850Z,21.53
2023-01-19T17:34:35.850Z,21.53
2023-01-19T17:35:35.846Z,21.53
2023-01-19T17:36:35.855Z,21.55
2023-01-19T17:37:35.844Z,21.55
2023-01-19T17:38:35.855Z,21.59
2023-01-19T17:39:35.849Z,21.61
2023-01-19T17:40:35.833Z,21.62
2023-01-19T17:41:35.848Z,21.61
2023-01-19T17:42:35.835Z,21.61
2023-01-19T17:43:35.828Z,21.61
2023-01-19T17:44:35.819Z,21.61
2023-01-19T17:45:35.822Z,21.59
2023-01-19T17:46:35.806Z,21.59
2023-01-19T17:47:35.802Z,21.59
2023-01-19T17:48:35.789Z,21.59
2023-01-19T17:49:35.799Z,21.59
2023-01-19T17:50:35.772Z,21.58
2023-01-19T17:51:35.782Z,21.57
2023-01-19T17:52:35.764Z,21.56
2023-01-19T17:53:35.762Z,21.55
2023-01-19T17:54:35.734Z,21.54
2023-01-19T17:55:35.735Z,21.52
2023-01-19T17:56:35.749Z,21.51
2023-01-19T17:57:35.721Z,21.53
2023-01-19T17:58:35.747Z,21.56
2023-01-19T17:59:35.715Z,21.61
2023-01-19T18:00:35.717Z,21.63
2023-01-19T18:01:35.779Z,21.64
2023-01-19T18:02:35.763Z,21.63
2023-01-19T18:03:35.717Z,21.60
2023-01-19T18:04:35.716Z,21.60
2023-01-19T18:05:35.718Z,21.62
2023-01-19T18:06:35.720Z,21.67
2023-01-19T18:07:35.708Z,21.68
2023-01-19T18:08:35.707Z,21.69
2023-01-19T18:09:35.705Z,21.68
2023-01-19T18:10:35.691Z,21.67
2023-01-19T18:11:35.692Z,21.65
2023-01-19T18:12:35.694Z,21.66
2023-01-19T18:13:35.670Z,21.65
2023-01-19T18:14:35.667Z,21.65
2023-01-19T18:15:35.698Z,21.66
2023-01-19T18:16:35.665Z,21.66
2023-01-19T18:17:35.666Z,21.66
2023-01-19T18:18:35.656Z,21.65
2023-01-19T18:19:35.645Z,21.65
2023-01-19T18:20:35.634Z,21.66
2023-01-19T18:21:35.619Z,21.66
2023-01-19T18:22:35.620Z,21.69
2023-01-19T18:23:35.619Z,21.68
2023-01-19T18:24:35.609Z,21.66
2023-01-19T18:25:35.640Z,21.65
2023-01-19T18:26:35.590Z,21.63
2023-01-19T18:27:35.602Z,21.63
2023-01-19T18:28:35.589Z,21.64
2023-01-19T18:29:35.591Z,21.65
2023-01-19T18:30:35.588Z,21.65
2023-01-19T18:31:35.602Z,21.64
2023-01-19T18:32:35.563Z,21.63
2023-01-19T18:33:35.560Z,21.62
2023-01-19T18:34:35.546Z,21.60
2023-01-19T18:35:35.527Z,21.58
2023-01-19T18:36:35.523Z,21.57
2023-01-19T18:37:35.509Z,21.56
2023-01-19T18:38:35.518Z,21.55
2023-01-19T18:39:35.501Z,21.55
2023-01-19T18:40:35.501Z,21.57
2023-01-19T18:41:35.505Z,21.60
2023-01-19T18:42:35.487Z,21.61
2023-01-19T18:43:35.471Z,21.59
2023-01-19T18:44:35.482Z,21.59
2023-01-19T18:45:35.471Z,21.58
2023-01-19T18:46:35.468Z,21.57
2023-01-19T18:47:35.464Z,21.56
2023-01-19T18:48:35.455Z,21.54
2023-01-19T18:49:35.447Z,21.54
2023-01-19T18:50:35.452Z,21.54
2023-01-19T18:51:35.452Z,21.54
2023-01-19T18:52:35.451Z,21.52
2023-01-19T18:53:35.463Z,21.51
2023-01-19T18:54:35.424Z,21.50
2023-01-19T18:55:35.427Z,21.50
2023-01-19T18:56:35.436Z,21.48
2023-01-19T18:57:35.428Z,21.50
2023-01-19T18:58:35.420Z,21.52
2023-01-19T18:59:35.393Z,21.54
2023-01-19T19:00:35.396Z,21.54
2023-01-19T19:01:35.607Z,21.54
2023-01-19T19:02:35.393Z,21.52
2023-01-19T19:03:35.377Z,21.51
2023-01-19T19:04:35.364Z,21.52
2023-01-19T19:05:35.370Z,21.54
2023-01-19T19:06:35.337Z,21.56
2023-01-19T19:07:35.330Z,21.57
2023-01-19T19:08:35.317Z,21.56
2023-01-19T19:09:35.316Z,21.58
2023-01-19T19:10:35.318Z,21.58
2023-01-19T19:11:35.306Z,21.56
2023-01-19T19:12:35.288Z,21.54
2023-01-19T19:13:35.286Z,21.53
2023-01-19T19:14:35.289Z,21.52
2023-01-19T19:15:35.286Z,21.49
2023-01-19T19:16:37.460Z,21.49
2023-01-19T19:17:35.293Z,21.48
2023-01-19T19:18:35.293Z,21.46
2023-01-19T19:19:35.291Z,21.47
2023-01-19T19:20:35.276Z,21.47
2023-01-19T19:21:35.292Z,21.46
2023-01-19T19:22:35.273Z,21.47
2023-01-19T19:23:35.276Z,21.46
2023-01-19T19:24:35.286Z,21.48
2023-01-19T19:25:35.273Z,21.51
2023-01-19T19:26:35.270Z,21.54
2023-01-19T19:27:35.269Z,21.54
2023-01-19T19:28:35.281Z,21.54
2023-01-19T19:29:35.274Z,21.54
2023-01-19T19:30:35.317Z,21.53
2023-01-19T19:31:35.338Z,21.53
2023-01-19T19:32:35.291Z,21.54
2023-01-19T19:33:35.293Z,21.58
2023-01-19T19:34:35.282Z,21.57
2023-01-19T19:35:35.282Z,21.57
2023-01-19T19:36:35.284Z,21.54
2023-01-19T19:37:35.278Z,21.53
2023-01-19T19:38:35.289Z,21.54
2023-01-19T19:39:35.272Z,21.55
2023-01-19T19:40:35.281Z,21.56
2023-01-19T19:41:35.292Z,21.59
2023-01-19T21:31:34.936Z,21.51
2023-01-19T21:32:34.912Z,21.50
2023-01-19T21:58:34.948Z,21.45
